sensor_id;sensor_type;location;lat;lon;timestamp;P1;durP1;ratioP1;P2;durP2;ratioP2
70169;SDS011;57543;45.442;9.212;2022-10-23T00:02:02;24.83;;;11.20;;
70169;SDS011;57543;45.442;9.212;2022-10-23T00:05:06;20.65;;;10.80;;
70169;SDS011;57543;45.442;9.212;2022-10-23T00:08:10;18.10;;;10.30;;
70169;SDS011;57543;45.442;9.212;2022-10-23T00:11:19;17.50;;;10.35;;
70169;SDS011;57543;45.442;9.212;2022-10-23T00:14:24;19.98;;;10.93;;
70169;SDS011;57543;45.442;9.212;2022-10-23T00:17:28;17.67;;;9.68;;
70169;SDS011;57543;45.442;9.212;2022-10-23T00:20:34;19.03;;;11.07;;
70169;SDS011;57543;45.442;9.212;2022-10-23T00:23:37;21.55;;;11.50;;
70169;SDS011;57543;45.442;9.212;2022-10-23T00:26:43;20.25;;;11.75;;
70169;SDS011;57543;45.442;9.212;2022-10-23T00:29:46;24.73;;;11.93;;
70169;SDS011;57543;45.442;9.212;2022-10-23T00:32:50;22.08;;;11.50;;
70169;SDS011;57543;45.442;9.212;2022-10-23T00:35:55;19.03;;;10.73;;
70169;SDS011;57543;45.442;9.212;2022-10-23T00:38:59;19.85;;;10.82;;
70169;SDS011;57543;45.442;9.212;2022-10-23T00:42:02;18.33;;;10.23;;
70169;SDS011;57543;45.442;9.212;2022-10-23T00:45:08;17.90;;;10.48;;
70169;SDS011;57543;45.442;9.212;2022-10-23T00:48:17;17.90;;;11.18;;
70169;SDS011;57543;45.442;9.212;2022-10-23T00:51:21;20.43;;;11.00;;
70169;SDS011;57543;45.442;9.212;2022-10-23T00:54:25;18.08;;;11.20;;
70169;SDS011;57543;45.442;9.212;2022-10-23T00:57:34;19.77;;;11.02;;
70169;SDS011;57543;45.442;9.212;2022-10-23T01:00:45;21.08;;;11.45;;
70169;SDS011;57543;45.442;9.212;2022-10-23T01:03:51;18.67;;;11.18;;
70169;SDS011;57543;45.442;9.212;2022-10-23T01:07:10;17.00;;;9.80;;
70169;SDS011;57543;45.442;9.212;2022-10-23T01:10:29;17.67;;;9.85;;
70169;SDS011;57543;45.442;9.212;2022-10-23T01:13:44;16.67;;;9.57;;
70169;SDS011;57543;45.442;9.212;2022-10-23T01:17:12;19.38;;;9.95;;
70169;SDS011;57543;45.442;9.212;2022-10-23T01:27:22;17.85;;;9.45;;
70169;SDS011;57543;45.442;9.212;2022-10-23T01:30:33;16.42;;;8.95;;
70169;SDS011;57543;45.442;9.212;2022-10-23T01:33:42;15.57;;;8.65;;
70169;SDS011;57543;45.442;9.212;2022-10-23T01:36:49;15.07;;;8.85;;
70169;SDS011;57543;45.442;9.212;2022-10-23T01:39:54;14.40;;;8.37;;
70169;SDS011;57543;45.442;9.212;2022-10-23T01:43:04;16.05;;;8.95;;
70169;SDS011;57543;45.442;9.212;2022-10-23T01:46:14;15.77;;;8.40;;
70169;SDS011;57543;45.442;9.212;2022-10-23T01:49:19;13.60;;;8.40;;
70169;SDS011;57543;45.442;9.212;2022-10-23T01:52:29;14.63;;;8.43;;
70169;SDS011;57543;45.442;9.212;2022-10-23T01:55:33;16.13;;;7.83;;
70169;SDS011;57543;45.442;9.212;2022-10-23T01:58:43;16.77;;;8.50;;
70169;SDS011;57543;45.442;9.212;2022-10-23T02:01:50;13.82;;;7.97;;
70169;SDS011;57543;45.442;9.212;2022-10-23T02:04:57;16.58;;;8.68;;
70169;SDS011;57543;45.442;9.212;2022-10-23T02:08:05;13.90;;;7.93;;
70169;SDS011;57543;45.442;9.212;2022-10-23T02:11:10;17.37;;;8.20;;
70169;SDS011;57543;45.442;9.212;2022-10-23T02:14:25;15.20;;;7.60;;
70169;SDS011;57543;45.442;9.212;2022-10-23T02:21:40;13.70;;;8.07;;
70169;SDS011;57543;45.442;9.212;2022-10-23T02:28:23;15.53;;;7.63;;
70169;SDS011;57543;45.442;9.212;2022-10-23T02:31:33;13.52;;;7.82;;
70169;SDS011;57543;45.442;9.212;2022-10-23T02:34:37;14.23;;;7.07;;
70169;SDS011;57543;45.442;9.212;2022-10-23T02:37:41;13.60;;;7.53;;
70169;SDS011;57543;45.442;9.212;2022-10-23T02:40:45;13.18;;;7.70;;
70169;SDS011;57543;45.442;9.212;2022-10-23T02:43:52;15.23;;;7.90;;
70169;SDS011;57543;45.442;9.212;2022-10-23T02:47:23;12.30;;;6.93;;
70169;SDS011;57543;45.442;9.212;2022-10-23T02:51:08;13.15;;;7.38;;
70169;SDS011;57543;45.442;9.212;2022-10-23T02:57:43;15.05;;;7.10;;
70169;SDS011;57543;45.442;9.212;2022-10-23T03:01:12;12.97;;;7.00;;
70169;SDS011;57543;45.442;9.212;2022-10-23T03:04:20;13.93;;;7.43;;
70169;SDS011;57543;45.442;9.212;2022-10-23T03:07:27;13.68;;;7.50;;
70169;SDS011;57543;45.442;9.212;2022-10-23T03:10:39;12.38;;;7.43;;
70169;SDS011;57543;45.442;9.212;2022-10-23T03:13:43;13.40;;;7.65;;
70169;SDS011;57543;45.442;9.212;2022-10-23T03:16:47;15.20;;;7.23;;
70169;SDS011;57543;45.442;9.212;2022-10-23T03:19:50;12.40;;;6.75;;
70169;SDS011;57543;45.442;9.212;2022-10-23T03:22:54;13.57;;;7.55;;
70169;SDS011;57543;45.442;9.212;2022-10-23T03:25:57;12.70;;;6.72;;
70169;SDS011;57543;45.442;9.212;2022-10-23T03:29:15;14.18;;;7.07;;
70169;SDS011;57543;45.442;9.212;2022-10-23T03:32:21;12.80;;;7.10;;
70169;SDS011;57543;45.442;9.212;2022-10-23T03:35:25;11.13;;;6.13;;
70169;SDS011;57543;45.442;9.212;2022-10-23T03:38:28;10.93;;;6.25;;
70169;SDS011;57543;45.442;9.212;2022-10-23T03:41:33;10.95;;;6.07;;
70169;SDS011;57543;45.442;9.212;2022-10-23T03:44:36;10.90;;;6.28;;
70169;SDS011;57543;45.442;9.212;2022-10-23T03:47:40;13.43;;;6.87;;
70169;SDS011;57543;45.442;9.212;2022-10-23T03:50:44;12.90;;;6.85;;
70169;SDS011;57543;45.442;9.212;2022-10-23T03:53:48;11.95;;;6.30;;
70169;SDS011;57543;45.442;9.212;2022-10-23T03:56:53;9.70;;;5.57;;
70169;SDS011;57543;45.442;9.212;2022-10-23T03:59:57;10.65;;;6.07;;
70169;SDS011;57543;45.442;9.212;2022-10-23T04:03:06;10.87;;;6.10;;
70169;SDS011;57543;45.442;9.212;2022-10-23T04:06:13;9.52;;;5.53;;
70169;SDS011;57543;45.442;9.212;2022-10-23T04:09:17;9.73;;;5.47;;
70169;SDS011;57543;45.442;9.212;2022-10-23T04:12:20;11.60;;;5.72;;
70169;SDS011;57543;45.442;9.212;2022-10-23T04:15:24;10.20;;;5.45;;
70169;SDS011;57543;45.442;9.212;2022-10-23T04:18:28;10.87;;;5.73;;
70169;SDS011;57543;45.442;9.212;2022-10-23T04:21:31;10.70;;;6.20;;
70169;SDS011;57543;45.442;9.212;2022-10-23T04:24:35;12.88;;;5.85;;
70169;SDS011;57543;45.442;9.212;2022-10-23T04:27:39;9.55;;;5.88;;
70169;SDS011;57543;45.442;9.212;2022-10-23T04:30:42;11.18;;;5.97;;
70169;SDS011;57543;45.442;9.212;2022-10-23T04:33:49;11.73;;;6.70;;
70169;SDS011;57543;45.442;9.212;2022-10-23T04:37:05;10.35;;;6.25;;
70169;SDS011;57543;45.442;9.212;2022-10-23T04:40:09;10.10;;;6.10;;
70169;SDS011;57543;45.442;9.212;2022-10-23T04:43:14;10.25;;;5.82;;
70169;SDS011;57543;45.442;9.212;2022-10-23T04:46:18;12.32;;;5.78;;
70169;SDS011;57543;45.442;9.212;2022-10-23T04:49:24;10.07;;;5.77;;
70169;SDS011;57543;45.442;9.212;2022-10-23T04:52:46;10.13;;;5.80;;
70169;SDS011;57543;45.442;9.212;2022-10-23T04:56:23;10.57;;;5.78;;
70169;SDS011;57543;45.442;9.212;2022-10-23T04:59:38;9.85;;;5.30;;
70169;SDS011;57543;45.442;9.212;2022-10-23T05:02:42;9.20;;;5.30;;
70169;SDS011;57543;45.442;9.212;2022-10-23T05:05:46;9.43;;;5.20;;
70169;SDS011;57543;45.442;9.212;2022-10-23T05:09:02;10.00;;;5.55;;
70169;SDS011;57543;45.442;9.212;2022-10-23T05:12:35;9.90;;;5.10;;
70169;SDS011;57543;45.442;9.212;2022-10-23T05:15:40;8.90;;;5.25;;
70169;SDS011;57543;45.442;9.212;2022-10-23T05:18:44;9.32;;;5.32;;
70169;SDS011;57543;45.442;9.212;2022-10-23T05:21:49;9.17;;;4.87;;
70169;SDS011;57543;45.442;9.212;2022-10-23T05:25:00;8.55;;;4.95;;
70169;SDS011;57543;45.442;9.212;2022-10-23T05:28:07;8.93;;;4.88;;
70169;SDS011;57543;45.442;9.212;2022-10-23T05:31:11;9.93;;;4.93;;
70169;SDS011;57543;45.442;9.212;2022-10-23T05:34:17;7.82;;;5.00;;
70169;SDS011;57543;45.442;9.212;2022-10-23T05:37:24;9.47;;;5.00;;
70169;SDS011;57543;45.442;9.212;2022-10-23T05:40:32;9.82;;;5.65;;
70169;SDS011;57543;45.442;9.212;2022-10-23T05:43:41;9.43;;;5.22;;
70169;SDS011;57543;45.442;9.212;2022-10-23T05:47:04;8.93;;;5.15;;
70169;SDS011;57543;45.442;9.212;2022-10-23T05:50:28;7.85;;;4.75;;
70169;SDS011;57543;45.442;9.212;2022-10-23T05:53:51;7.60;;;4.50;;
70169;SDS011;57543;45.442;9.212;2022-10-23T05:57:07;8.43;;;4.50;;
70169;SDS011;57543;45.442;9.212;2022-10-23T06:00:23;9.65;;;5.03;;
70169;SDS011;57543;45.442;9.212;2022-10-23T06:03:44;9.65;;;4.82;;
70169;SDS011;57543;45.442;9.212;2022-10-23T06:06:48;7.18;;;4.55;;
70169;SDS011;57543;45.442;9.212;2022-10-23T06:09:53;8.50;;;4.50;;
70169;SDS011;57543;45.442;9.212;2022-10-23T06:12:57;7.57;;;4.55;;
70169;SDS011;57543;45.442;9.212;2022-10-23T06:19:14;10.10;;;4.90;;
70169;SDS011;57543;45.442;9.212;2022-10-23T06:22:19;9.18;;;4.72;;
70169;SDS011;57543;45.442;9.212;2022-10-23T06:25:26;8.43;;;4.77;;
70169;SDS011;57543;45.442;9.212;2022-10-23T06:28:32;8.18;;;4.45;;
70169;SDS011;57543;45.442;9.212;2022-10-23T06:31:36;7.88;;;4.80;;
70169;SDS011;57543;45.442;9.212;2022-10-23T06:34:41;9.88;;;4.90;;
70169;SDS011;57543;45.442;9.212;2022-10-23T06:37:45;8.43;;;4.93;;
70169;SDS011;57543;45.442;9.212;2022-10-23T06:40:55;9.63;;;4.73;;
70169;SDS011;57543;45.442;9.212;2022-10-23T06:44:10;7.63;;;4.45;;
70169;SDS011;57543;45.442;9.212;2022-10-23T06:47:21;8.38;;;4.60;;
70169;SDS011;57543;45.442;9.212;2022-10-23T06:50:51;8.65;;;4.75;;
70169;SDS011;57543;45.442;9.212;2022-10-23T06:54:00;7.40;;;4.35;;
70169;SDS011;57543;45.442;9.212;2022-10-23T06:57:30;8.77;;;4.90;;
70169;SDS011;57543;45.442;9.212;2022-10-23T07:00:36;11.93;;;4.82;;
70169;SDS011;57543;45.442;9.212;2022-10-23T07:03:41;7.90;;;4.15;;
70169;SDS011;57543;45.442;9.212;2022-10-23T07:06:45;7.85;;;4.22;;
70169;SDS011;57543;45.442;9.212;2022-10-23T07:09:49;8.02;;;4.40;;
70169;SDS011;57543;45.442;9.212;2022-10-23T07:13:13;7.80;;;4.37;;
70169;SDS011;57543;45.442;9.212;2022-10-23T07:16:22;7.32;;;4.47;;
70169;SDS011;57543;45.442;9.212;2022-10-23T07:19:27;8.68;;;4.55;;
70169;SDS011;57543;45.442;9.212;2022-10-23T07:22:51;9.20;;;4.82;;
70169;SDS011;57543;45.442;9.212;2022-10-23T07:26:07;8.30;;;4.70;;
70169;SDS011;57543;45.442;9.212;2022-10-23T07:29:13;7.50;;;4.40;;
70169;SDS011;57543;45.442;9.212;2022-10-23T07:32:18;7.20;;;4.18;;
70169;SDS011;57543;45.442;9.212;2022-10-23T07:35:41;8.23;;;4.22;;
70169;SDS011;57543;45.442;9.212;2022-10-23T07:38:49;7.28;;;3.88;;
70169;SDS011;57543;45.442;9.212;2022-10-23T07:41:53;7.47;;;4.43;;
70169;SDS011;57543;45.442;9.212;2022-10-23T07:44:57;7.30;;;4.23;;
70169;SDS011;57543;45.442;9.212;2022-10-23T07:48:01;7.82;;;4.40;;
70169;SDS011;57543;45.442;9.212;2022-10-23T07:51:15;7.20;;;4.38;;
70169;SDS011;57543;45.442;9.212;2022-10-23T07:54:22;7.82;;;4.30;;
70169;SDS011;57543;45.442;9.212;2022-10-23T07:57:54;7.78;;;4.13;;
70169;SDS011;57543;45.442;9.212;2022-10-23T08:01:16;10.20;;;4.47;;
70169;SDS011;57543;45.442;9.212;2022-10-23T08:04:22;7.35;;;4.10;;
70169;SDS011;57543;45.442;9.212;2022-10-23T08:07:38;9.85;;;4.25;;
70169;SDS011;57543;45.442;9.212;2022-10-23T08:10:44;7.43;;;4.25;;
70169;SDS011;57543;45.442;9.212;2022-10-23T08:13:53;9.23;;;4.80;;
70169;SDS011;57543;45.442;9.212;2022-10-23T08:17:00;8.57;;;4.50;;
70169;SDS011;57543;45.442;9.212;2022-10-23T08:20:22;7.85;;;4.03;;
70169;SDS011;57543;45.442;9.212;2022-10-23T08:23:26;6.80;;;3.95;;
70169;SDS011;57543;45.442;9.212;2022-10-23T08:26:30;7.80;;;4.50;;
70169;SDS011;57543;45.442;9.212;2022-10-23T08:29:34;9.00;;;4.35;;
70169;SDS011;57543;45.442;9.212;2022-10-23T08:32:38;7.07;;;3.90;;
70169;SDS011;57543;45.442;9.212;2022-10-23T08:35:42;8.02;;;4.32;;
70169;SDS011;57543;45.442;9.212;2022-10-23T08:38:46;10.45;;;3.85;;
70169;SDS011;57543;45.442;9.212;2022-10-23T08:41:53;8.15;;;4.10;;
70169;SDS011;57543;45.442;9.212;2022-10-23T08:45:05;7.78;;;3.95;;
70169;SDS011;57543;45.442;9.212;2022-10-23T08:48:25;6.43;;;3.13;;
70169;SDS011;57543;45.442;9.212;2022-10-23T08:51:52;8.55;;;4.32;;
70169;SDS011;57543;45.442;9.212;2022-10-23T08:55:04;8.60;;;4.80;;
70169;SDS011;57543;45.442;9.212;2022-10-23T08:58:26;12.02;;;5.22;;
70169;SDS011;57543;45.442;9.212;2022-10-23T09:02:31;9.13;;;5.10;;
70169;SDS011;57543;45.442;9.212;2022-10-23T09:05:13;8.20;;;4.80;;
70169;SDS011;57543;45.442;9.212;2022-10-23T09:14:55;8.27;;;4.25;;
70169;SDS011;57543;45.442;9.212;2022-10-23T09:18:22;7.63;;;4.25;;
70169;SDS011;57543;45.442;9.212;2022-10-23T09:21:26;9.43;;;4.50;;
70169;SDS011;57543;45.442;9.212;2022-10-23T09:24:31;7.72;;;4.40;;
70169;SDS011;57543;45.442;9.212;2022-10-23T09:27:36;10.52;;;4.28;;
70169;SDS011;57543;45.442;9.212;2022-10-23T09:30:41;8.23;;;4.18;;
70169;SDS011;57543;45.442;9.212;2022-10-23T09:33:57;9.70;;;4.40;;
70169;SDS011;57543;45.442;9.212;2022-10-23T09:37:16;9.93;;;4.03;;
70169;SDS011;57543;45.442;9.212;2022-10-23T09:40:28;6.55;;;3.88;;
70169;SDS011;57543;45.442;9.212;2022-10-23T09:43:35;6.93;;;4.10;;
70169;SDS011;57543;45.442;9.212;2022-10-23T09:46:42;7.97;;;4.30;;
70169;SDS011;57543;45.442;9.212;2022-10-23T09:49:48;9.52;;;4.68;;
70169;SDS011;57543;45.442;9.212;2022-10-23T09:52:53;8.37;;;4.50;;
70169;SDS011;57543;45.442;9.212;2022-10-23T09:55:59;9.68;;;5.00;;
70169;SDS011;57543;45.442;9.212;2022-10-23T10:02:29;8.80;;;4.60;;
70169;SDS011;57543;45.442;9.212;2022-10-23T10:06:00;7.82;;;4.35;;
70169;SDS011;57543;45.442;9.212;2022-10-23T10:09:12;7.40;;;4.40;;
70169;SDS011;57543;45.442;9.212;2022-10-23T10:12:22;9.32;;;4.35;;
70169;SDS011;57543;45.442;9.212;2022-10-23T10:15:34;7.82;;;4.55;;
70169;SDS011;57543;45.442;9.212;2022-10-23T10:25:40;9.53;;;5.03;;
70169;SDS011;57543;45.442;9.212;2022-10-23T10:35:55;9.43;;;5.10;;
70169;SDS011;57543;45.442;9.212;2022-10-23T10:39:07;8.82;;;4.65;;
70169;SDS011;57543;45.442;9.212;2022-10-23T10:42:23;10.20;;;5.07;;
70169;SDS011;57543;45.442;9.212;2022-10-23T10:46:05;9.32;;;4.63;;
70169;SDS011;57543;45.442;9.212;2022-10-23T10:49:39;10.27;;;4.63;;
70169;SDS011;57543;45.442;9.212;2022-10-23T10:53:19;7.93;;;4.07;;
70169;SDS011;57543;45.442;9.212;2022-10-23T10:56:28;8.85;;;4.40;;
70169;SDS011;57543;45.442;9.212;2022-10-23T10:59:36;9.20;;;4.20;;
70169;SDS011;57543;45.442;9.212;2022-10-23T11:02:45;8.90;;;4.72;;
70169;SDS011;57543;45.442;9.212;2022-10-23T11:05:50;8.15;;;4.85;;
70169;SDS011;57543;45.442;9.212;2022-10-23T11:08:58;7.45;;;4.45;;
70169;SDS011;57543;45.442;9.212;2022-10-23T11:12:13;10.63;;;5.25;;
70169;SDS011;57543;45.442;9.212;2022-10-23T11:15:21;9.13;;;5.30;;
70169;SDS011;57543;45.442;9.212;2022-10-23T11:19:06;11.25;;;5.47;;
70169;SDS011;57543;45.442;9.212;2022-10-23T11:35:59;10.95;;;5.75;;
70169;SDS011;57543;45.442;9.212;2022-10-23T11:39:22;10.88;;;5.40;;
70169;SDS011;57543;45.442;9.212;2022-10-23T11:42:32;10.88;;;5.60;;
70169;SDS011;57543;45.442;9.212;2022-10-23T11:45:42;11.55;;;5.88;;
70169;SDS011;57543;45.442;9.212;2022-10-23T11:48:46;12.57;;;5.83;;
70169;SDS011;57543;45.442;9.212;2022-10-23T11:52:00;11.70;;;6.30;;
70169;SDS011;57543;45.442;9.212;2022-10-23T11:55:16;10.88;;;5.50;;
70169;SDS011;57543;45.442;9.212;2022-10-23T11:58:22;10.50;;;5.75;;
70169;SDS011;57543;45.442;9.212;2022-10-23T12:01:40;11.07;;;5.93;;
70169;SDS011;57543;45.442;9.212;2022-10-23T12:04:47;10.27;;;5.60;;
70169;SDS011;57543;45.442;9.212;2022-10-23T12:07:53;11.40;;;6.10;;
70169;SDS011;57543;45.442;9.212;2022-10-23T12:10:58;12.18;;;5.80;;
70169;SDS011;57543;45.442;9.212;2022-10-23T12:14:03;15.70;;;6.25;;
70169;SDS011;57543;45.442;9.212;2022-10-23T12:17:24;10.40;;;6.05;;
70169;SDS011;57543;45.442;9.212;2022-10-23T12:20:39;11.77;;;5.50;;
70169;SDS011;57543;45.442;9.212;2022-10-23T12:27:14;12.07;;;5.75;;
70169;SDS011;57543;45.442;9.212;2022-10-23T12:30:39;9.73;;;5.43;;
70169;SDS011;57543;45.442;9.212;2022-10-23T12:33:57;10.95;;;5.30;;
70169;SDS011;57543;45.442;9.212;2022-10-23T12:37:27;9.53;;;5.07;;
70169;SDS011;57543;45.442;9.212;2022-10-23T12:40:38;16.80;;;6.25;;
70169;SDS011;57543;45.442;9.212;2022-10-23T12:43:42;12.52;;;5.82;;
70169;SDS011;57543;45.442;9.212;2022-10-23T12:46:53;8.70;;;5.18;;
70169;SDS011;57543;45.442;9.212;2022-10-23T12:50:03;11.80;;;5.35;;
70169;SDS011;57543;45.442;9.212;2022-10-23T12:53:18;11.23;;;5.50;;
70169;SDS011;57543;45.442;9.212;2022-10-23T12:56:23;14.52;;;5.05;;
70169;SDS011;57543;45.442;9.212;2022-10-23T12:59:35;10.40;;;5.07;;
70169;SDS011;57543;45.442;9.212;2022-10-23T13:02:40;11.07;;;5.53;;
70169;SDS011;57543;45.442;9.212;2022-10-23T13:05:43;12.65;;;5.38;;
70169;SDS011;57543;45.442;9.212;2022-10-23T13:08:47;10.97;;;5.47;;
70169;SDS011;57543;45.442;9.212;2022-10-23T13:15:35;9.68;;;4.88;;
70169;SDS011;57543;45.442;9.212;2022-10-23T13:18:43;9.10;;;4.90;;
70169;SDS011;57543;45.442;9.212;2022-10-23T13:21:46;10.00;;;4.68;;
70169;SDS011;57543;45.442;9.212;2022-10-23T13:24:51;10.33;;;5.30;;
70169;SDS011;57543;45.442;9.212;2022-10-23T13:28:03;10.70;;;5.85;;
70169;SDS011;57543;45.442;9.212;2022-10-23T13:34:23;10.88;;;5.72;;
70169;SDS011;57543;45.442;9.212;2022-10-23T13:37:33;12.48;;;5.65;;
70169;SDS011;57543;45.442;9.212;2022-10-23T13:40:37;9.90;;;5.07;;
70169;SDS011;57543;45.442;9.212;2022-10-23T13:43:41;12.23;;;5.78;;
70169;SDS011;57543;45.442;9.212;2022-10-23T13:46:45;11.27;;;5.50;;
70169;SDS011;57543;45.442;9.212;2022-10-23T13:49:50;13.43;;;5.35;;
70169;SDS011;57543;45.442;9.212;2022-10-23T13:52:54;10.18;;;5.35;;
70169;SDS011;57543;45.442;9.212;2022-10-23T13:55:58;10.70;;;5.10;;
70169;SDS011;57543;45.442;9.212;2022-10-23T13:59:01;12.23;;;5.38;;
70169;SDS011;57543;45.442;9.212;2022-10-23T14:02:38;10.80;;;5.57;;
70169;SDS011;57543;45.442;9.212;2022-10-23T14:05:35;11.48;;;5.97;;
70169;SDS011;57543;45.442;9.212;2022-10-23T14:08:38;9.93;;;5.60;;
70169;SDS011;57543;45.442;9.212;2022-10-23T14:11:43;9.27;;;5.43;;
70169;SDS011;57543;45.442;9.212;2022-10-23T14:14:52;11.95;;;5.72;;
70169;SDS011;57543;45.442;9.212;2022-10-23T14:17:56;12.10;;;5.60;;
70169;SDS011;57543;45.442;9.212;2022-10-23T14:21:00;10.98;;;4.97;;
70169;SDS011;57543;45.442;9.212;2022-10-23T14:24:05;11.02;;;5.43;;
70169;SDS011;57543;45.442;9.212;2022-10-23T14:27:08;10.10;;;5.47;;
70169;SDS011;57543;45.442;9.212;2022-10-23T14:30:12;9.57;;;5.00;;
70169;SDS011;57543;45.442;9.212;2022-10-23T14:33:17;9.60;;;5.30;;
70169;SDS011;57543;45.442;9.212;2022-10-23T14:36:21;12.90;;;5.65;;
70169;SDS011;57543;45.442;9.212;2022-10-23T14:39:26;9.80;;;5.50;;
70169;SDS011;57543;45.442;9.212;2022-10-23T14:42:30;9.87;;;5.30;;
70169;SDS011;57543;45.442;9.212;2022-10-23T14:45:36;14.48;;;6.53;;
70169;SDS011;57543;45.442;9.212;2022-10-23T14:48:40;11.38;;;5.43;;
70169;SDS011;57543;45.442;9.212;2022-10-23T14:51:44;13.15;;;6.00;;
70169;SDS011;57543;45.442;9.212;2022-10-23T14:54:51;11.45;;;5.70;;
70169;SDS011;57543;45.442;9.212;2022-10-23T14:57:56;12.50;;;5.83;;
70169;SDS011;57543;45.442;9.212;2022-10-23T15:01:00;11.50;;;5.57;;
70169;SDS011;57543;45.442;9.212;2022-10-23T15:04:04;12.63;;;5.55;;
70169;SDS011;57543;45.442;9.212;2022-10-23T15:07:08;12.55;;;5.75;;
70169;SDS011;57543;45.442;9.212;2022-10-23T15:10:11;10.80;;;5.57;;
70169;SDS011;57543;45.442;9.212;2022-10-23T15:13:15;10.67;;;5.53;;
70169;SDS011;57543;45.442;9.212;2022-10-23T15:16:19;9.90;;;5.47;;
70169;SDS011;57543;45.442;9.212;2022-10-23T15:19:24;9.80;;;6.00;;
70169;SDS011;57543;45.442;9.212;2022-10-23T15:22:28;11.05;;;5.65;;
70169;SDS011;57543;45.442;9.212;2022-10-23T15:25:32;11.70;;;5.80;;
70169;SDS011;57543;45.442;9.212;2022-10-23T15:28:39;9.37;;;5.33;;
70169;SDS011;57543;45.442;9.212;2022-10-23T15:31:56;11.60;;;6.15;;
70169;SDS011;57543;45.442;9.212;2022-10-23T15:35:01;11.57;;;5.70;;
70169;SDS011;57543;45.442;9.212;2022-10-23T15:38:05;11.65;;;5.68;;
70169;SDS011;57543;45.442;9.212;2022-10-23T15:41:12;10.35;;;5.63;;
70169;SDS011;57543;45.442;9.212;2022-10-23T15:44:17;11.57;;;6.10;;
70169;SDS011;57543;45.442;9.212;2022-10-23T15:47:23;16.50;;;6.80;;
70169;SDS011;57543;45.442;9.212;2022-10-23T15:50:27;11.70;;;6.15;;
70169;SDS011;57543;45.442;9.212;2022-10-23T15:53:31;11.95;;;5.97;;
70169;SDS011;57543;45.442;9.212;2022-10-23T15:56:35;12.80;;;6.07;;
70169;SDS011;57543;45.442;9.212;2022-10-23T15:59:39;11.53;;;5.93;;
70169;SDS011;57543;45.442;9.212;2022-10-23T16:02:43;13.00;;;6.43;;
70169;SDS011;57543;45.442;9.212;2022-10-23T16:05:47;11.68;;;6.00;;
70169;SDS011;57543;45.442;9.212;2022-10-23T16:08:51;11.80;;;6.45;;
70169;SDS011;57543;45.442;9.212;2022-10-23T16:11:55;12.05;;;6.68;;
70169;SDS011;57543;45.442;9.212;2022-10-23T16:14:58;12.10;;;6.30;;
70169;SDS011;57543;45.442;9.212;2022-10-23T16:18:02;12.95;;;6.50;;
70169;SDS011;57543;45.442;9.212;2022-10-23T16:21:06;13.05;;;6.60;;
70169;SDS011;57543;45.442;9.212;2022-10-23T16:24:16;13.40;;;6.35;;
70169;SDS011;57543;45.442;9.212;2022-10-23T16:27:20;13.52;;;7.13;;
70169;SDS011;57543;45.442;9.212;2022-10-23T16:30:23;16.23;;;7.23;;
70169;SDS011;57543;45.442;9.212;2022-10-23T16:33:27;12.60;;;6.40;;
70169;SDS011;57543;45.442;9.212;2022-10-23T16:36:31;13.38;;;6.78;;
70169;SDS011;57543;45.442;9.212;2022-10-23T16:39:41;13.88;;;7.18;;
70169;SDS011;57543;45.442;9.212;2022-10-23T16:43:03;16.42;;;7.75;;
70169;SDS011;57543;45.442;9.212;2022-10-23T16:46:18;12.30;;;7.30;;
70169;SDS011;57543;45.442;9.212;2022-10-23T16:49:23;14.20;;;7.43;;
70169;SDS011;57543;45.442;9.212;2022-10-23T16:52:26;18.38;;;7.82;;
70169;SDS011;57543;45.442;9.212;2022-10-23T16:55:30;12.95;;;7.32;;
70169;SDS011;57543;45.442;9.212;2022-10-23T16:58:34;15.07;;;7.82;;
70169;SDS011;57543;45.442;9.212;2022-10-23T17:01:38;13.70;;;7.13;;
70169;SDS011;57543;45.442;9.212;2022-10-23T17:04:42;13.70;;;6.78;;
70169;SDS011;57543;45.442;9.212;2022-10-23T17:07:45;12.18;;;7.20;;
70169;SDS011;57543;45.442;9.212;2022-10-23T17:10:49;15.18;;;7.22;;
70169;SDS011;57543;45.442;9.212;2022-10-23T17:13:53;14.43;;;7.00;;
70169;SDS011;57543;45.442;9.212;2022-10-23T17:17:00;13.07;;;6.43;;
70169;SDS011;57543;45.442;9.212;2022-10-23T17:20:04;13.48;;;6.93;;
70169;SDS011;57543;45.442;9.212;2022-10-23T17:23:07;12.27;;;7.60;;
70169;SDS011;57543;45.442;9.212;2022-10-23T17:26:12;12.32;;;7.15;;
70169;SDS011;57543;45.442;9.212;2022-10-23T17:29:18;14.43;;;6.90;;
70169;SDS011;57543;45.442;9.212;2022-10-23T17:32:23;12.82;;;6.70;;
70169;SDS011;57543;45.442;9.212;2022-10-23T17:35:26;14.38;;;7.30;;
70169;SDS011;57543;45.442;9.212;2022-10-23T17:38:30;13.73;;;7.25;;
70169;SDS011;57543;45.442;9.212;2022-10-23T17:41:33;11.55;;;6.68;;
70169;SDS011;57543;45.442;9.212;2022-10-23T17:44:37;12.98;;;7.28;;
70169;SDS011;57543;45.442;9.212;2022-10-23T17:47:41;15.43;;;7.60;;
70169;SDS011;57543;45.442;9.212;2022-10-23T17:50:45;11.93;;;7.13;;
70169;SDS011;57543;45.442;9.212;2022-10-23T17:53:49;16.52;;;7.40;;
70169;SDS011;57543;45.442;9.212;2022-10-23T17:56:55;13.30;;;6.90;;
70169;SDS011;57543;45.442;9.212;2022-10-23T17:59:58;12.18;;;7.22;;
70169;SDS011;57543;45.442;9.212;2022-10-23T18:03:03;13.40;;;7.07;;
70169;SDS011;57543;45.442;9.212;2022-10-23T18:06:07;12.48;;;6.80;;
70169;SDS011;57543;45.442;9.212;2022-10-23T18:09:11;12.85;;;7.03;;
70169;SDS011;57543;45.442;9.212;2022-10-23T18:12:15;12.48;;;6.85;;
70169;SDS011;57543;45.442;9.212;2022-10-23T18:15:19;13.38;;;7.22;;
70169;SDS011;57543;45.442;9.212;2022-10-23T18:18:23;13.23;;;6.77;;
70169;SDS011;57543;45.442;9.212;2022-10-23T18:21:26;10.20;;;6.53;;
70169;SDS011;57543;45.442;9.212;2022-10-23T18:24:30;13.50;;;6.72;;
70169;SDS011;57543;45.442;9.212;2022-10-23T18:27:34;12.63;;;7.38;;
70169;SDS011;57543;45.442;9.212;2022-10-23T18:30:38;11.90;;;7.55;;
70169;SDS011;57543;45.442;9.212;2022-10-23T18:33:42;14.20;;;6.97;;
70169;SDS011;57543;45.442;9.212;2022-10-23T18:36:46;12.38;;;6.90;;
70169;SDS011;57543;45.442;9.212;2022-10-23T18:39:51;13.55;;;6.97;;
70169;SDS011;57543;45.442;9.212;2022-10-23T18:42:55;11.95;;;6.43;;
70169;SDS011;57543;45.442;9.212;2022-10-23T18:45:58;15.27;;;7.10;;
70169;SDS011;57543;45.442;9.212;2022-10-23T18:49:02;11.67;;;6.03;;
70169;SDS011;57543;45.442;9.212;2022-10-23T18:52:06;13.80;;;7.07;;
70169;SDS011;57543;45.442;9.212;2022-10-23T18:55:10;13.00;;;6.80;;
70169;SDS011;57543;45.442;9.212;2022-10-23T18:58:17;13.98;;;7.40;;
70169;SDS011;57543;45.442;9.212;2022-10-23T19:01:21;12.05;;;6.88;;
70169;SDS011;57543;45.442;9.212;2022-10-23T19:04:25;13.00;;;6.63;;
70169;SDS011;57543;45.442;9.212;2022-10-23T19:07:29;14.88;;;7.55;;
70169;SDS011;57543;45.442;9.212;2022-10-23T19:10:33;15.18;;;8.25;;
70169;SDS011;57543;45.442;9.212;2022-10-23T19:13:37;15.18;;;8.20;;
70169;SDS011;57543;45.442;9.212;2022-10-23T19:16:43;14.77;;;7.25;;
70169;SDS011;57543;45.442;9.212;2022-10-23T19:19:56;14.90;;;7.37;;
70169;SDS011;57543;45.442;9.212;2022-10-23T19:23:08;14.60;;;7.70;;
70169;SDS011;57543;45.442;9.212;2022-10-23T19:26:12;17.67;;;7.65;;
70169;SDS011;57543;45.442;9.212;2022-10-23T19:29:17;13.70;;;7.53;;
70169;SDS011;57543;45.442;9.212;2022-10-23T19:32:23;14.88;;;6.95;;
70169;SDS011;57543;45.442;9.212;2022-10-23T19:35:27;14.00;;;7.70;;
70169;SDS011;57543;45.442;9.212;2022-10-23T19:38:30;13.07;;;6.97;;
70169;SDS011;57543;45.442;9.212;2022-10-23T19:41:34;11.27;;;7.03;;
70169;SDS011;57543;45.442;9.212;2022-10-23T19:44:38;13.48;;;7.15;;
70169;SDS011;57543;45.442;9.212;2022-10-23T19:47:42;13.23;;;7.55;;
70169;SDS011;57543;45.442;9.212;2022-10-23T19:50:46;14.77;;;7.37;;
70169;SDS011;57543;45.442;9.212;2022-10-23T19:53:49;13.32;;;6.45;;